sensor_id;sensor_type;location;lat;lon;timestamp;P1;durP1;ratioP1;P2;durP2;ratioP2
35679;SDS011;21803;53.586;10.040;2023-06-22T04:00:32;1.30;;;1.10;;
35679;SDS011;21803;53.586;10.040;2023-06-22T04:02:57;1.60;;;1.20;;
35679;SDS011;21803;53.586;10.040;2023-06-22T04:05:23;1.20;;;1.08;;
35679;SDS011;21803;53.586;10.040;2023-06-22T04:07:49;1.20;;;1.10;;
35679;SDS011;21803;53.586;10.040;2023-06-22T04:10:15;1.50;;;1.23;;
35679;SDS011;21803;53.586;10.040;2023-06-22T04:12:40;1.30;;;1.08;;
35679;SDS011;21803;53.586;10.040;2023-06-22T04:15:06;1.45;;;1.02;;
35679;SDS011;21803;53.586;10.040;2023-06-22T04:17:32;1.83;;;1.00;;
35679;SDS011;21803;53.586;10.040;2023-06-22T04:19:57;1.35;;;1.20;;
35679;SDS011;21803;53.586;10.040;2023-06-22T04:22:23;1.23;;;1.10;;
35679;SDS011;21803;53.586;10.040;2023-06-22T04:24:48;1.17;;;1.08;;
35679;SDS011;21803;53.586;10.040;2023-06-22T04:27:16;1.27;;;1.10;;
35679;SDS011;21803;53.586;10.040;2023-06-22T04:29:43;1.45;;;0.90;;
35679;SDS011;21803;53.586;10.040;2023-06-22T04:32:14;1.40;;;1.30;;
35679;SDS011;21803;53.586;10.040;2023-06-22T04:34:40;1.40;;;1.13;;
35679;SDS011;21803;53.586;10.040;2023-06-22T04:37:06;1.42;;;1.00;;
35679;SDS011;21803;53.586;10.040;2023-06-22T04:39:32;1.20;;;1.10;;
35679;SDS011;21803;53.586;10.040;2023-06-22T04:41:57;1.85;;;1.20;;
35679;SDS011;21803;53.586;10.040;2023-06-22T04:44:25;1.13;;;1.02;;
35679;SDS011;21803;53.586;10.040;2023-06-22T04:46:52;1.63;;;1.25;;
35679;SDS011;21803;53.586;10.040;2023-06-22T04:49:20;1.40;;;1.20;;
35679;SDS011;21803;53.586;10.040;2023-06-22T04:51:47;1.20;;;1.10;;
35679;SDS011;21803;53.586;10.040;2023-06-22T04:54:13;1.25;;;1.15;;
35679;SDS011;21803;53.586;10.040;2023-06-22T04:56:39;3.35;;;1.10;;
35679;SDS011;21803;53.586;10.040;2023-06-22T04:59:05;1.17;;;1.08;;
35679;SDS011;21803;53.586;10.040;2023-06-22T05:01:31;1.45;;;1.20;;
35679;SDS011;21803;53.586;10.040;2023-06-22T05:03:57;1.10;;;1.00;;
35679;SDS011;21803;53.586;10.040;2023-06-22T05:06:26;1.60;;;1.27;;
35679;SDS011;21803;53.586;10.040;2023-06-22T05:08:53;1.65;;;1.20;;
35679;SDS011;21803;53.586;10.040;2023-06-22T05:11:24;1.30;;;1.02;;
35679;SDS011;21803;53.586;10.040;2023-06-22T05:13:53;1.27;;;1.17;;
35679;SDS011;21803;53.586;10.040;2023-06-22T05:16:19;1.20;;;1.08;;
35679;SDS011;21803;53.586;10.040;2023-06-22T05:18:52;1.55;;;0.98;;
35679;SDS011;21803;53.586;10.040;2023-06-22T05:21:24;1.35;;;1.23;;
35679;SDS011;21803;53.586;10.040;2023-06-22T05:23:51;1.50;;;1.25;;
35679;SDS011;21803;53.586;10.040;2023-06-22T05:26:21;1.30;;;1.20;;
35679;SDS011;21803;53.586;10.040;2023-06-22T05:28:47;1.10;;;1.00;;
35679;SDS011;21803;53.586;10.040;2023-06-22T05:31:13;1.70;;;1.20;;
35679;SDS011;21803;53.586;10.040;2023-06-22T05:33:40;1.50;;;1.10;;
35679;SDS011;21803;53.586;10.040;2023-06-22T05:36:07;1.52;;;1.20;;
35679;SDS011;21803;53.586;10.040;2023-06-22T05:38:32;1.50;;;1.10;;
35679;SDS011;21803;53.586;10.040;2023-06-22T05:40:58;1.55;;;1.10;;
35679;SDS011;21803;53.586;10.040;2023-06-22T05:43:23;1.40;;;1.25;;
35679;SDS011;21803;53.586;10.040;2023-06-22T05:45:49;1.30;;;1.20;;
35679;SDS011;21803;53.586;10.040;2023-06-22T05:48:15;1.60;;;1.25;;
35679;SDS011;21803;53.586;10.040;2023-06-22T05:50:40;1.20;;;1.10;;
35679;SDS011;21803;53.586;10.040;2023-06-22T05:53:06;1.13;;;1.02;;
35679;SDS011;21803;53.586;10.040;2023-06-22T05:55:32;1.35;;;1.15;;
35679;SDS011;21803;53.586;10.040;2023-06-22T05:57:58;1.40;;;1.20;;
35679;SDS011;21803;53.586;10.040;2023-06-22T06:00:23;1.35;;;1.25;;
35679;SDS011;21803;53.586;10.040;2023-06-22T06:02:49;2.47;;;1.20;;
35679;SDS011;21803;53.586;10.040;2023-06-22T06:05:15;1.35;;;1.25;;
35679;SDS011;21803;53.586;10.040;2023-06-22T06:07:41;1.30;;;1.10;;
35679;SDS011;21803;53.586;10.040;2023-06-22T06:10:07;1.52;;;1.40;;
35679;SDS011;21803;53.586;10.040;2023-06-22T06:12:35;2.33;;;1.20;;
35679;SDS011;21803;53.586;10.040;2023-06-22T06:15:00;1.20;;;0.90;;
35679;SDS011;21803;53.586;10.040;2023-06-22T06:17:26;1.33;;;1.10;;
35679;SDS011;21803;53.586;10.040;2023-06-22T06:19:52;1.13;;;1.02;;
35679;SDS011;21803;53.586;10.040;2023-06-22T06:22:17;1.63;;;1.20;;
35679;SDS011;21803;53.586;10.040;2023-06-22T06:24:44;1.20;;;1.08;;
35679;SDS011;21803;53.586;10.040;2023-06-22T06:27:10;1.00;;;0.90;;
35679;SDS011;21803;53.586;10.040;2023-06-22T06:29:36;1.40;;;1.08;;
35679;SDS011;21803;53.586;10.040;2023-06-22T06:32:01;1.20;;;1.10;;
35679;SDS011;21803;53.586;10.040;2023-06-22T06:34:27;1.42;;;1.13;;
35679;SDS011;21803;53.586;10.040;2023-06-22T06:36:52;1.30;;;1.10;;
35679;SDS011;21803;53.586;10.040;2023-06-22T06:39:18;1.63;;;1.20;;
35679;SDS011;21803;53.586;10.040;2023-06-22T06:41:43;1.50;;;1.23;;
35679;SDS011;21803;53.586;10.040;2023-06-22T06:44:09;1.10;;;1.00;;
35679;SDS011;21803;53.586;10.040;2023-06-22T06:46:34;1.40;;;1.10;;
35679;SDS011;21803;53.586;10.040;2023-06-22T06:49:00;1.15;;;1.02;;
35679;SDS011;21803;53.586;10.040;2023-06-22T06:51:25;1.10;;;1.00;;
35679;SDS011;21803;53.586;10.040;2023-06-22T06:53:51;1.50;;;1.10;;
35679;SDS011;21803;53.586;10.040;2023-06-22T06:56:16;1.33;;;1.10;;
35679;SDS011;21803;53.586;10.040;2023-06-22T06:58:42;1.50;;;1.20;;
35679;SDS011;21803;53.586;10.040;2023-06-22T07:01:10;1.83;;;1.13;;
35679;SDS011;21803;53.586;10.040;2023-06-22T07:03:38;1.33;;;1.05;;
35679;SDS011;21803;53.586;10.040;2023-06-22T07:06:04;1.20;;;1.10;;
35679;SDS011;21803;53.586;10.040;2023-06-22T07:08:29;1.10;;;1.00;;
35679;SDS011;21803;53.586;10.040;2023-06-22T07:10:55;1.20;;;1.10;;
35679;SDS011;21803;53.586;10.040;2023-06-22T07:13:20;1.08;;;0.98;;
35679;SDS011;21803;53.586;10.040;2023-06-22T07:15:46;1.30;;;1.02;;
35679;SDS011;21803;53.586;10.040;2023-06-22T07:18:12;1.30;;;1.10;;
35679;SDS011;21803;53.586;10.040;2023-06-22T07:20:37;1.48;;;1.10;;
35679;SDS011;21803;53.586;10.040;2023-06-22T07:23:04;1.30;;;1.20;;
35679;SDS011;21803;53.586;10.040;2023-06-22T07:25:30;1.25;;;1.10;;
35679;SDS011;21803;53.586;10.040;2023-06-22T07:28:00;1.10;;;1.00;;
35679;SDS011;21803;53.586;10.040;2023-06-22T07:30:28;1.65;;;1.20;;
35679;SDS011;21803;53.586;10.040;2023-06-22T07:32:54;1.40;;;1.20;;
35679;SDS011;21803;53.586;10.040;2023-06-22T07:35:20;1.15;;;1.05;;
35679;SDS011;21803;53.586;10.040;2023-06-22T07:37:46;1.30;;;1.20;;
35679;SDS011;21803;53.586;10.040;2023-06-22T07:40:11;1.15;;;1.00;;
35679;SDS011;21803;53.586;10.040;2023-06-22T07:42:37;1.42;;;1.10;;
35679;SDS011;21803;53.586;10.040;2023-06-22T07:45:03;1.10;;;0.90;;
35679;SDS011;21803;53.586;10.040;2023-06-22T07:47:29;1.15;;;1.05;;
35679;SDS011;21803;53.586;10.040;2023-06-22T07:49:58;1.55;;;1.23;;
35679;SDS011;21803;53.586;10.040;2023-06-22T07:52:26;1.40;;;0.95;;
35679;SDS011;21803;53.586;10.040;2023-06-22T07:54:52;1.48;;;1.10;;
35679;SDS011;21803;53.586;10.040;2023-06-22T07:57:18;1.60;;;1.20;;
35679;SDS011;21803;53.586;10.040;2023-06-22T07:59:43;1.20;;;1.00;;
35679;SDS011;21803;53.586;10.040;2023-06-22T08:02:09;1.30;;;1.02;;
35679;SDS011;21803;53.586;10.040;2023-06-22T08:04:35;1.70;;;1.10;;
35679;SDS011;21803;53.586;10.040;2023-06-22T08:07:01;1.70;;;1.20;;
35679;SDS011;21803;53.586;10.040;2023-06-22T08:09:28;1.55;;;1.30;;
35679;SDS011;21803;53.586;10.040;2023-06-22T08:11:55;1.90;;;1.23;;
35679;SDS011;21803;53.586;10.040;2023-06-22T08:14:21;1.48;;;1.23;;
35679;SDS011;21803;53.586;10.040;2023-06-22T08:16:56;2.00;;;1.58;;
35679;SDS011;21803;53.586;10.040;2023-06-22T08:19:21;2.13;;;1.38;;
35679;SDS011;21803;53.586;10.040;2023-06-22T08:21:47;1.88;;;1.48;;
35679;SDS011;21803;53.586;10.040;2023-06-22T08:24:12;1.60;;;1.50;;
35679;SDS011;21803;53.586;10.040;2023-06-22T08:26:38;1.70;;;1.20;;
35679;SDS011;21803;53.586;10.040;2023-06-22T08:29:03;2.10;;;1.50;;
35679;SDS011;21803;53.586;10.040;2023-06-22T08:31:29;2.17;;;1.60;;
35679;SDS011;21803;53.586;10.040;2023-06-22T08:33:56;2.47;;;1.60;;
35679;SDS011;21803;53.586;10.040;2023-06-22T08:36:22;2.65;;;1.90;;
35679;SDS011;21803;53.586;10.040;2023-06-22T08:38:47;2.08;;;1.67;;
35679;SDS011;21803;53.586;10.040;2023-06-22T08:41:16;2.42;;;1.67;;
35679;SDS011;21803;53.586;10.040;2023-06-22T08:43:42;2.00;;;1.70;;
35679;SDS011;21803;53.586;10.040;2023-06-22T08:46:09;1.95;;;1.70;;
35679;SDS011;21803;53.586;10.040;2023-06-22T08:48:35;2.92;;;1.58;;
35679;SDS011;21803;53.586;10.040;2023-06-22T08:51:01;1.90;;;1.65;;
35679;SDS011;21803;53.586;10.040;2023-06-22T08:53:27;1.88;;;1.63;;
35679;SDS011;21803;53.586;10.040;2023-06-22T08:55:53;1.85;;;1.65;;
35679;SDS011;21803;53.586;10.040;2023-06-22T08:58:18;4.32;;;2.03;;
35679;SDS011;21803;53.586;10.040;2023-06-22T09:00:45;2.47;;;1.85;;
35679;SDS011;21803;53.586;10.040;2023-06-22T09:03:10;2.08;;;1.80;;
35679;SDS011;21803;53.586;10.040;2023-06-22T09:05:37;2.13;;;1.70;;
35679;SDS011;21803;53.586;10.040;2023-06-22T09:08:02;2.55;;;1.67;;
35679;SDS011;21803;53.586;10.040;2023-06-22T09:10:28;2.53;;;1.80;;
35679;SDS011;21803;53.586;10.040;2023-06-22T09:12:54;2.28;;;1.98;;
35679;SDS011;21803;53.586;10.040;2023-06-22T09:15:19;5.20;;;2.00;;
35679;SDS011;21803;53.586;10.040;2023-06-22T09:17:45;3.25;;;1.70;;
35679;SDS011;21803;53.586;10.040;2023-06-22T09:20:11;2.90;;;1.70;;
35679;SDS011;21803;53.586;10.040;2023-06-22T09:22:37;3.60;;;1.70;;
35679;SDS011;21803;53.586;10.040;2023-06-22T09:25:03;2.85;;;1.88;;
35679;SDS011;21803;53.586;10.040;2023-06-22T09:27:29;2.13;;;1.63;;
35679;SDS011;21803;53.586;10.040;2023-06-22T09:29:55;2.17;;;1.50;;
35679;SDS011;21803;53.586;10.040;2023-06-22T09:32:23;3.08;;;1.90;;
35679;SDS011;21803;53.586;10.040;2023-06-22T09:34:49;1.88;;;1.60;;
35679;SDS011;21803;53.586;10.040;2023-06-22T09:37:14;2.10;;;1.45;;
35679;SDS011;21803;53.586;10.040;2023-06-22T09:39:40;3.70;;;1.92;;
35679;SDS011;21803;53.586;10.040;2023-06-22T09:42:05;2.47;;;1.80;;
35679;SDS011;21803;53.586;10.040;2023-06-22T09:44:31;2.15;;;1.55;;
35679;SDS011;21803;53.586;10.040;2023-06-22T09:46:57;2.58;;;1.60;;
35679;SDS011;21803;53.586;10.040;2023-06-22T09:49:22;2.00;;;1.55;;
35679;SDS011;21803;53.586;10.040;2023-06-22T09:51:48;3.08;;;1.60;;
35679;SDS011;21803;53.586;10.040;2023-06-22T09:54:14;3.70;;;1.88;;
35679;SDS011;21803;53.586;10.040;2023-06-22T09:56:40;2.08;;;1.70;;
35679;SDS011;21803;53.586;10.040;2023-06-22T09:59:05;3.60;;;1.67;;
35679;SDS011;21803;53.586;10.040;2023-06-22T10:01:31;3.28;;;1.50;;
35679;SDS011;21803;53.586;10.040;2023-06-22T10:03:56;2.20;;;1.70;;
35679;SDS011;21803;53.586;10.040;2023-06-22T10:06:23;3.33;;;1.75;;
35679;SDS011;21803;53.586;10.040;2023-06-22T10:08:50;2.28;;;1.40;;
35679;SDS011;21803;53.586;10.040;2023-06-22T10:11:16;1.80;;;1.55;;
35679;SDS011;21803;53.586;10.040;2023-06-22T10:13:41;1.63;;;1.40;;
35679;SDS011;21803;53.586;10.040;2023-06-22T10:16:07;3.53;;;1.70;;
35679;SDS011;21803;53.586;10.040;2023-06-22T10:18:32;2.47;;;1.77;;
35679;SDS011;21803;53.586;10.040;2023-06-22T10:20:58;2.08;;;1.50;;
35679;SDS011;21803;53.586;10.040;2023-06-22T10:23:24;2.08;;;1.75;;
35679;SDS011;21803;53.586;10.040;2023-06-22T10:25:49;2.10;;;1.50;;
35679;SDS011;21803;53.586;10.040;2023-06-22T10:28:15;1.92;;;1.73;;
35679;SDS011;21803;53.586;10.040;2023-06-22T10:30:41;2.28;;;1.67;;
35679;SDS011;21803;53.586;10.040;2023-06-22T10:33:08;1.80;;;1.50;;
35679;SDS011;21803;53.586;10.040;2023-06-22T10:35:34;1.70;;;1.52;;
35679;SDS011;21803;53.586;10.040;2023-06-22T10:38:00;1.90;;;1.58;;
35679;SDS011;21803;53.586;10.040;2023-06-22T10:40:25;1.65;;;1.42;;
35679;SDS011;21803;53.586;10.040;2023-06-22T10:42:51;1.95;;;1.50;;
35679;SDS011;21803;53.586;10.040;2023-06-22T10:45:16;3.50;;;1.50;;
35679;SDS011;21803;53.586;10.040;2023-06-22T10:47:42;1.83;;;1.60;;
35679;SDS011;21803;53.586;10.040;2023-06-22T10:50:07;1.70;;;1.30;;
35679;SDS011;21803;53.586;10.040;2023-06-22T10:52:33;1.73;;;1.50;;
35679;SDS011;21803;53.586;10.040;2023-06-22T10:54:59;1.70;;;1.52;;
35679;SDS011;21803;53.586;10.040;2023-06-22T10:57:24;2.28;;;1.40;;
35679;SDS011;21803;53.586;10.040;2023-06-22T10:59:50;2.03;;;1.40;;
35679;SDS011;21803;53.586;10.040;2023-06-22T11:02:15;2.25;;;1.50;;
35679;SDS011;21803;53.586;10.040;2023-06-22T11:04:41;1.98;;;1.48;;
35679;SDS011;21803;53.586;10.040;2023-06-22T11:07:06;2.03;;;1.50;;
35679;SDS011;21803;53.586;10.040;2023-06-22T11:09:32;1.88;;;1.75;;
35679;SDS011;21803;53.586;10.040;2023-06-22T11:11:57;1.63;;;1.33;;
35679;SDS011;21803;53.586;10.040;2023-06-22T11:14:23;1.65;;;1.40;;
35679;SDS011;21803;53.586;10.040;2023-06-22T11:16:49;1.95;;;1.40;;
35679;SDS011;21803;53.586;10.040;2023-06-22T11:19:15;1.77;;;1.50;;
35679;SDS011;21803;53.586;10.040;2023-06-22T11:21:41;1.70;;;1.55;;
35679;SDS011;21803;53.586;10.040;2023-06-22T11:24:06;5.15;;;1.50;;
35679;SDS011;21803;53.586;10.040;2023-06-22T11:26:32;3.00;;;1.60;;
35679;SDS011;21803;53.586;10.040;2023-06-22T11:28:58;3.15;;;1.70;;
35679;SDS011;21803;53.586;10.040;2023-06-22T11:31:24;2.33;;;1.45;;
35679;SDS011;21803;53.586;10.040;2023-06-22T11:33:49;2.42;;;1.55;;
35679;SDS011;21803;53.586;10.040;2023-06-22T11:36:15;3.70;;;1.58;;
35679;SDS011;21803;53.586;10.040;2023-06-22T11:38:42;2.28;;;1.45;;
35679;SDS011;21803;53.586;10.040;2023-06-22T11:41:08;5.45;;;1.48;;
35679;SDS011;21803;53.586;10.040;2023-06-22T11:43:34;2.00;;;1.52;;
35679;SDS011;21803;53.586;10.040;2023-06-22T11:46:01;2.92;;;1.50;;
35679;SDS011;21803;53.586;10.040;2023-06-22T11:48:28;1.88;;;1.38;;
35679;SDS011;21803;53.586;10.040;2023-06-22T11:50:54;4.15;;;1.40;;
35679;SDS011;21803;53.586;10.040;2023-06-22T11:53:20;2.58;;;1.40;;
35679;SDS011;21803;53.586;10.040;2023-06-22T11:55:50;2.65;;;1.30;;
35679;SDS011;21803;53.586;10.040;2023-06-22T11:58:15;4.05;;;1.80;;
35679;SDS011;21803;53.586;10.040;2023-06-22T12:00:41;1.83;;;1.30;;
35679;SDS011;21803;53.586;10.040;2023-06-22T12:03:07;2.97;;;1.45;;
35679;SDS011;21803;53.586;10.040;2023-06-22T12:05:33;4.43;;;1.42;;
35679;SDS011;21803;53.586;10.040;2023-06-22T12:07:58;4.07;;;1.60;;
35679;SDS011;21803;53.586;10.040;2023-06-22T12:10:25;3.08;;;1.52;;
35679;SDS011;21803;53.586;10.040;2023-06-22T12:12:51;2.33;;;1.20;;
35679;SDS011;21803;53.586;10.040;2023-06-22T12:15:16;2.63;;;1.55;;
35679;SDS011;21803;53.586;10.040;2023-06-22T12:17:42;2.10;;;1.50;;
35679;SDS011;21803;53.586;10.040;2023-06-22T12:20:08;1.60;;;1.40;;
35679;SDS011;21803;53.586;10.040;2023-06-22T12:22:34;4.07;;;1.65;;
35679;SDS011;21803;53.586;10.040;2023-06-22T12:25:00;1.67;;;1.23;;
35679;SDS011;21803;53.586;10.040;2023-06-22T12:27:26;2.45;;;1.58;;
35679;SDS011;21803;53.586;10.040;2023-06-22T12:29:52;2.17;;;1.45;;
35679;SDS011;21803;53.586;10.040;2023-06-22T12:32:17;2.78;;;1.50;;
35679;SDS011;21803;53.586;10.040;2023-06-22T12:34:43;2.88;;;1.42;;
35679;SDS011;21803;53.586;10.040;2023-06-22T12:37:10;1.70;;;1.40;;
35679;SDS011;21803;53.586;10.040;2023-06-22T12:39:35;1.50;;;1.30;;
35679;SDS011;21803;53.586;10.040;2023-06-22T12:42:01;1.95;;;1.42;;
35679;SDS011;21803;53.586;10.040;2023-06-22T12:44:27;2.15;;;1.48;;
35679;SDS011;21803;53.586;10.040;2023-06-22T12:46:52;4.50;;;1.67;;
35679;SDS011;21803;53.586;10.040;2023-06-22T12:49:18;1.98;;;1.50;;
35679;SDS011;21803;53.586;10.040;2023-06-22T12:51:44;2.33;;;1.50;;
35679;SDS011;21803;53.586;10.040;2023-06-22T12:54:10;3.13;;;1.40;;
35679;SDS011;21803;53.586;10.040;2023-06-22T12:56:36;1.83;;;1.52;;
35679;SDS011;21803;53.586;10.040;2023-06-22T12:59:03;1.60;;;1.45;;
35679;SDS011;21803;53.586;10.040;2023-06-22T13:01:29;3.47;;;1.60;;
35679;SDS011;21803;53.586;10.040;2023-06-22T13:03:56;1.67;;;1.38;;
35679;SDS011;21803;53.586;10.040;2023-06-22T13:06:23;1.92;;;1.50;;
35679;SDS011;21803;53.586;10.040;2023-06-22T13:08:48;2.03;;;1.50;;
35679;SDS011;21803;53.586;10.040;2023-06-22T13:11:14;1.48;;;1.30;;
35679;SDS011;21803;53.586;10.040;2023-06-22T13:13:40;2.05;;;1.50;;
35679;SDS011;21803;53.586;10.040;2023-06-22T13:16:05;1.58;;;1.30;;
35679;SDS011;21803;53.586;10.040;2023-06-22T13:18:31;1.77;;;1.30;;
35679;SDS011;21803;53.586;10.040;2023-06-22T13:20:58;1.67;;;1.40;;
35679;SDS011;21803;53.586;10.040;2023-06-22T13:23:25;2.00;;;1.50;;
35679;SDS011;21803;53.586;10.040;2023-06-22T13:25:50;2.88;;;1.60;;
35679;SDS011;21803;53.586;10.040;2023-06-22T13:28:16;2.05;;;1.70;;
35679;SDS011;21803;53.586;10.040;2023-06-22T13:30:42;1.70;;;1.60;;
35679;SDS011;21803;53.586;10.040;2023-06-22T13:33:10;2.13;;;1.58;;
35679;SDS011;21803;53.586;10.040;2023-06-22T13:35:36;1.58;;;1.48;;
35679;SDS011;21803;53.586;10.040;2023-06-22T13:38:02;1.80;;;1.38;;
35679;SDS011;21803;53.586;10.040;2023-06-22T13:40:28;2.83;;;1.70;;
35679;SDS011;21803;53.586;10.040;2023-06-22T13:42:53;1.63;;;1.45;;
35679;SDS011;21803;53.586;10.040;2023-06-22T13:45:19;2.00;;;1.40;;
35679;SDS011;21803;53.586;10.040;2023-06-22T13:47:45;2.83;;;1.42;;
35679;SDS011;21803;53.586;10.040;2023-06-22T13:50:10;2.13;;;1.70;;
35679;SDS011;21803;53.586;10.040;2023-06-22T13:52:37;2.88;;;1.60;;
35679;SDS011;21803;53.586;10.040;2023-06-22T13:55:03;1.63;;;1.52;;
35679;SDS011;21803;53.586;10.040;2023-06-22T13:57:29;2.08;;;1.50;;
35679;SDS011;21803;53.586;10.040;2023-06-22T13:59:55;1.92;;;1.40;;
35679;SDS011;21803;53.586;10.040;2023-06-22T14:02:20;1.55;;;1.42;;
35679;SDS011;21803;53.586;10.040;2023-06-22T14:04:46;2.63;;;1.60;;
35679;SDS011;21803;53.586;10.040;2023-06-22T14:07:11;2.00;;;1.40;;
35679;SDS011;21803;53.586;10.040;2023-06-22T14:09:37;1.65;;;1.50;;
35679;SDS011;21803;53.586;10.040;2023-06-22T14:12:06;1.92;;;1.65;;
35679;SDS011;21803;53.586;10.040;2023-06-22T14:14:32;1.77;;;1.30;;
35679;SDS011;21803;53.586;10.040;2023-06-22T14:16:58;2.03;;;1.58;;
35679;SDS011;21803;53.586;10.040;2023-06-22T14:19:24;2.60;;;1.85;;
35679;SDS011;21803;53.586;10.040;2023-06-22T14:21:50;1.90;;;1.70;;
35679;SDS011;21803;53.586;10.040;2023-06-22T14:24:15;1.67;;;1.40;;
35679;SDS011;21803;53.586;10.040;2023-06-22T14:26:41;2.33;;;2.13;;
35679;SDS011;21803;53.586;10.040;2023-06-22T14:29:06;1.75;;;1.60;;
35679;SDS011;21803;53.586;10.040;2023-06-22T14:31:32;2.50;;;1.70;;
35679;SDS011;21803;53.586;10.040;2023-06-22T14:33:57;2.92;;;1.60;;
35679;SDS011;21803;53.586;10.040;2023-06-22T14:36:23;2.13;;;1.88;;
35679;SDS011;21803;53.586;10.040;2023-06-22T14:38:49;1.92;;;1.70;;
35679;SDS011;21803;53.586;10.040;2023-06-22T14:41:14;1.98;;;1.77;;
35679;SDS011;21803;53.586;10.040;2023-06-22T14:43:43;2.60;;;1.95;;
35679;SDS011;21803;53.586;10.040;2023-06-22T14:46:10;2.60;;;1.90;;
35679;SDS011;21803;53.586;10.040;2023-06-22T14:48:36;2.70;;;1.90;;
35679;SDS011;21803;53.586;10.040;2023-06-22T14:51:01;2.40;;;1.88;;
35679;SDS011;21803;53.586;10.040;2023-06-22T14:53:27;2.00;;;1.77;;
35679;SDS011;21803;53.586;10.040;2023-06-22T14:55:52;2.42;;;1.90;;
35679;SDS011;21803;53.586;10.040;2023-06-22T14:58:19;2.00;;;1.80;;
35679;SDS011;21803;53.586;10.040;2023-06-22T15:00:45;2.95;;;2.20;;
35679;SDS011;21803;53.586;10.040;2023-06-22T15:03:10;2.55;;;1.90;;
35679;SDS011;21803;53.586;10.040;2023-06-22T15:05:42;2.20;;;2.00;;
35679;SDS011;21803;53.586;10.040;2023-06-22T15:08:08;2.55;;;2.00;;
35679;SDS011;21803;53.586;10.040;2023-06-22T15:10:33;2.58;;;2.08;;
35679;SDS011;21803;53.586;10.040;2023-06-22T15:12:59;4.25;;;2.45;;
35679;SDS011;21803;53.586;10.040;2023-06-22T15:15:24;2.47;;;2.17;;
35679;SDS011;21803;53.586;10.040;2023-06-22T15:17:50;2.30;;;2.10;;
35679;SDS011;21803;53.586;10.040;2023-06-22T15:20:15;2.55;;;2.13;;
35679;SDS011;21803;53.586;10.040;2023-06-22T15:22:41;3.95;;;2.25;;
35679;SDS011;21803;53.586;10.040;2023-06-22T15:25:06;2.70;;;2.28;;
35679;SDS011;21803;53.586;10.040;2023-06-22T15:27:32;2.65;;;2.10;;
35679;SDS011;21803;53.586;10.040;2023-06-22T15:29:57;2.70;;;2.13;;
35679;SDS011;21803;53.586;10.040;2023-06-22T15:32:23;2.75;;;2.45;;
35679;SDS011;21803;53.586;10.040;2023-06-22T15:34:50;2.47;;;2.28;;
35679;SDS011;21803;53.586;10.040;2023-06-22T15:37:18;2.80;;;2.40;;
35679;SDS011;21803;53.586;10.040;2023-06-22T15:39:44;2.70;;;2.40;;
35679;SDS011;21803;53.586;10.040;2023-06-22T15:42:09;2.72;;;2.30;;
35679;SDS011;21803;53.586;10.040;2023-06-22T15:44:35;2.90;;;2.53;;
35679;SDS011;21803;53.586;10.040;2023-06-22T15:47:00;3.05;;;2.47;;
35679;SDS011;21803;53.586;10.040;2023-06-22T15:49:26;3.08;;;2.60;;
35679;SDS011;21803;53.586;10.040;2023-06-22T15:51:52;3.40;;;2.60;;
35679;SDS011;21803;53.586;10.040;2023-06-22T15:54:18;3.40;;;2.88;;
35679;SDS011;21803;53.586;10.040;2023-06-22T15:56:43;3.58;;;2.75;;
35679;SDS011;21803;53.586;10.040;2023-06-22T15:59:09;2.63;;;2.42;;
35679;SDS011;21803;53.586;10.040;2023-06-22T16:01:34;3.65;;;2.67;;
35679;SDS011;21803;53.586;10.040;2023-06-22T16:04:01;2.90;;;2.60;;
35679;SDS011;21803;53.586;10.040;2023-06-22T16:06:27;3.20;;;2.63;;
35679;SDS011;21803;53.586;10.040;2023-06-22T16:08:53;3.65;;;2.60;;
35679;SDS011;21803;53.586;10.040;2023-06-22T16:11:19;2.92;;;2.58;;
35679;SDS011;21803;53.586;10.040;2023-06-22T16:13:45;4.15;;;2.80;;
35679;SDS011;21803;53.586;10.040;2023-06-22T16:16:11;3.05;;;2.65;;
35679;SDS011;21803;53.586;10.040;2023-06-22T16:18:37;3.45;;;3.03;;
35679;SDS011;21803;53.586;10.040;2023-06-22T16:21:02;2.85;;;2.53;;
35679;SDS011;21803;53.586;10.040;2023-06-22T16:23:29;3.58;;;2.75;;
35679;SDS011;21803;53.586;10.040;2023-06-22T16:25:55;3.30;;;2.88;;
35679;SDS011;21803;53.586;10.040;2023-06-22T16:28:21;3.53;;;2.80;;
35679;SDS011;21803;53.586;10.040;2023-06-22T16:30:47;4.40;;;2.72;;
35679;SDS011;21803;53.586;10.040;2023-06-22T16:33:12;3.17;;;2.88;;
35679;SDS011;21803;53.586;10.040;2023-06-22T16:35:38;3.42;;;2.80;;
35679;SDS011;21803;53.586;10.040;2023-06-22T16:38:05;4.13;;;3.47;;
35679;SDS011;21803;53.586;10.040;2023-06-22T16:40:31;4.90;;;4.22;;
35679;SDS011;21803;53.586;10.040;2023-06-22T16:42:57;8.27;;;5.65;;
35679;SDS011;21803;53.586;10.040;2023-06-22T16:45:23;10.68;;;8.82;;
35679;SDS011;21803;53.586;10.040;2023-06-22T16:47:49;13.95;;;12.32;;
35679;SDS011;21803;53.586;10.040;2023-06-22T16:50:15;22.05;;;17.50;;
35679;SDS011;21803;53.586;10.040;2023-06-22T16:52:42;23.40;;;19.20;;
35679;SDS011;21803;53.586;10.040;2023-06-22T16:55:13;24.60;;;21.15;;
35679;SDS011;21803;53.586;10.040;2023-06-22T16:57:39;27.15;;;23.38;;
35679;SDS011;21803;53.586;10.040;2023-06-22T17:00:06;26.63;;;23.73;;
35679;SDS011;21803;53.586;10.040;2023-06-22T17:02:34;29.33;;;23.65;;
35679;SDS011;21803;53.586;10.040;2023-06-22T17:05:08;28.33;;;23.00;;
35679;SDS011;21803;53.586;10.040;2023-06-22T17:07:34;27.25;;;23.73;;
35679;SDS011;21803;53.586;10.040;2023-06-22T17:10:02;30.58;;;24.25;;
35679;SDS011;21803;53.586;10.040;2023-06-22T17:12:28;26.92;;;23.13;;
35679;SDS011;21803;53.586;10.040;2023-06-22T17:14:54;26.25;;;22.92;;
35679;SDS011;21803;53.586;10.040;2023-06-22T17:17:22;26.52;;;22.83;;
35679;SDS011;21803;53.586;10.040;2023-06-22T17:19:50;23.40;;;20.88;;
35679;SDS011;21803;53.586;10.040;2023-06-22T17:22:16;24.25;;;20.55;;
35679;SDS011;21803;53.586;10.040;2023-06-22T17:24:42;23.20;;;19.98;;
35679;SDS011;21803;53.586;10.040;2023-06-22T17:27:08;22.25;;;19.30;;
35679;SDS011;21803;53.586;10.040;2023-06-22T17:29:34;21.75;;;18.17;;
35679;SDS011;21803;53.586;10.040;2023-06-22T17:32:01;21.40;;;18.23;;
35679;SDS011;21803;53.586;10.040;2023-06-22T17:34:28;19.95;;;17.45;;
35679;SDS011;21803;53.586;10.040;2023-06-22T17:36:55;20.30;;;17.38;;
35679;SDS011;21803;53.586;10.040;2023-06-22T17:39:22;20.00;;;16.27;;
35679;SDS011;21803;53.586;10.040;2023-06-22T17:41:49;18.98;;;15.52;;
35679;SDS011;21803;53.586;10.040;2023-06-22T17:46:51;17.35;;;14.52;;
35679;SDS011;21803;53.586;10.040;2023-06-22T17:49:21;15.27;;;13.70;;
35679;SDS011;21803;53.586;10.040;2023-06-22T17:51:50;15.88;;;13.98;;
35679;SDS011;21803;53.586;10.040;2023-06-22T17:54:16;15.32;;;13.05;;
35679;SDS011;21803;53.586;10.040;2023-06-22T17:56:42;15.23;;;13.18;;
35679;SDS011;21803;53.586;10.040;2023-06-22T17:59:19;14.55;;;12.32;;
35679;SDS011;21803;53.586;10.040;2023-06-22T18:01:45;13.88;;;12.38;;
35679;SDS011;21803;53.586;10.040;2023-06-22T18:04:11;16.00;;;12.02;;
35679;SDS011;21803;53.586;10.040;2023-06-22T18:06:38;12.35;;;10.60;;
35679;SDS011;21803;53.586;10.040;2023-06-22T18:09:05;11.65;;;9.88;;
35679;SDS011;21803;53.586;10.040;2023-06-22T18:11:32;12.18;;;10.63;;
35679;SDS011;21803;53.586;10.040;2023-06-22T18:14:00;11.73;;;9.57;;
35679;SDS011;21803;53.586;10.040;2023-06-22T18:16:28;9.93;;;8.75;;
35679;SDS011;21803;53.586;10.040;2023-06-22T18:18:54;10.75;;;8.52;;
35679;SDS011;21803;53.586;10.040;2023-06-22T18:21:23;11.07;;;9.48;;
35679;SDS011;21803;53.586;10.040;2023-06-22T18:23:49;9.55;;;8.55;;
35679;SDS011;21803;53.586;10.040;2023-06-22T18:26:16;9.88;;;8.55;;